Terminal Aerodrome Forecast
Issued by NWS

Home | Current Version | Previous Version | Text Only | Print | Product List | Glossary On
Versions: 1 2 3 4 5 6 7 8 9 10 11 12 13 14
000
FTUS45 KTFX 172320
TAFBZN
TAF
KBZN 172320Z 1800/1906 VRB06KT P6SM SCT150
      TEMPO 1800/1803 22015KT
     FM181800 22015G20KT P6SM FEW070 BKN150
     FM190200 VRB06KT P6SM FEW070 FEW150=

USA.gov is the U.S. government's official web portal to all federal, state and local government web resources and services.